Time;durP1;ratioP1;P1;durP2;ratioP2;P2;SDS_P1;SDS_P2;PMS_P1;PMS_P2;Temp;Humidity;BMP_temperature;BMP_pressure;BME280_temperature;BME280_humidity;BME280_pressure;Samples;Min_cycle;Max_cycle;Signal;HPM_P1;HPM_P2
2024/01/29 00:01:28;;;;;;;23.67;12.88;;;4.00;97.70;;;;;;6339223;22;20478;-90
2024/01/29 00:03:54;;;;;;;12.48;10.95;;;4.00;97.60;;;;;;6339875;22;19999;-89
2024/01/29 00:06:20;;;;;;;34.80;16.45;;;3.90;97.60;;;;;;6339557;22;19999;-90
2024/01/29 00:08:46;;;;;;;15.68;12.13;;;3.60;97.70;;;;;;6339555;22;20002;-90
2024/01/29 00:11:11;;;;;;;21.65;14.65;;;3.70;98.10;;;;;;6340038;22;20005;-89
2024/01/29 00:13:37;;;;;;;12.45;10.98;;;3.70;98.00;;;;;;6312065;22;20015;-89
2024/01/29 00:16:03;;;;;;;16.00;12.38;;;3.60;98.30;;;;;;6339691;22;20009;-89
2024/01/29 00:18:29;;;;;;;35.05;17.23;;;3.60;98.30;;;;;;6339411;22;20425;-90
2024/01/29 00:20:57;;;;;;;15.13;11.82;;;3.70;98.20;;;;;;6339639;22;19999;-89
2024/01/29 00:23:23;;;;;;;15.20;11.70;;;3.70;98.20;;;;;;6339746;22;20652;-88
2024/01/29 00:25:48;;;;;;;17.02;11.13;;;3.80;98.10;;;;;;6339550;22;20425;-91
2024/01/29 00:28:14;;;;;;;14.02;10.75;;;3.80;97.90;;;;;;6339509;22;20018;-91
2024/01/29 00:30:40;;;;;;;16.48;11.00;;;3.70;98.00;;;;;;6339173;22;20005;-90
2024/01/29 00:33:05;;;;;;;30.95;19.40;;;3.80;98.00;;;;;;6339876;22;20030;-91
2024/01/29 00:35:31;;;;;;;17.50;12.50;;;3.80;97.70;;;;;;6339850;22;20370;-90
2024/01/29 00:37:57;;;;;;;13.13;10.70;;;3.60;97.90;;;;;;6339831;22;20022;-90
2024/01/29 00:40:24;;;;;;;23.15;13.77;;;3.70;98.00;;;;;;6339628;22;20302;-90
2024/01/29 00:42:50;;;;;;;69.50;21.25;;;3.70;97.90;;;;;;6339646;22;20002;-91
2024/01/29 00:45:15;;;;;;;49.67;20.58;;;3.60;97.90;;;;;;6339892;22;19999;-91
2024/01/29 00:47:41;;;;;;;41.80;19.38;;;3.50;98.40;;;;;;6340015;22;20425;-90
2024/01/29 00:50:08;;;;;;;48.08;14.98;;;3.40;98.60;;;;;;6339555;22;20302;-91
2024/01/29 00:52:33;;;;;;;12.15;10.00;;;3.20;98.90;;;;;;6339855;22;19999;-90
2024/01/29 00:54:59;;;;;;;19.55;11.60;;;3.10;99.10;;;;;;6339691;22;20006;-89
2024/01/29 00:57:25;;;;;;;49.17;18.95;;;3.20;98.80;;;;;;6339632;22;20071;-89
2024/01/29 00:59:51;;;;;;;73.88;19.60;;;3.30;98.60;;;;;;6339491;22;20022;-89
2024/01/29 01:02:17;;;;;;;16.10;11.63;;;3.20;98.60;;;;;;6311752;22;20064;-90
2024/01/29 01:04:42;;;;;;;14.38;11.02;;;3.30;98.70;;;;;;6339916;22;19998;-89
2024/01/29 01:07:08;;;;;;;13.95;11.70;;;3.30;98.60;;;;;;6339539;22;20006;-89
2024/01/29 01:09:34;;;;;;;12.27;10.75;;;3.30;98.60;;;;;;6339969;22;20333;-89
2024/01/29 01:11:59;;;;;;;22.77;13.65;;;3.40;98.50;;;;;;6340190;22;20151;-90
2024/01/29 01:14:25;;;;;;;91.80;26.42;;;3.50;98.40;;;;;;6340093;22;20006;-89
2024/01/29 01:16:51;;;;;;;35.72;17.70;;;2.90;98.60;;;;;;6312116;22;20062;-91
2024/01/29 01:19:16;;;;;;;13.63;11.82;;;2.90;99.30;;;;;;6339735;22;19994;-90
2024/01/29 01:21:42;;;;;;;17.23;11.50;;;3.00;99.10;;;;;;6312232;22;20007;-91
2024/01/29 01:24:08;;;;;;;11.93;10.30;;;3.20;99.00;;;;;;6339588;22;20006;-90
2024/01/29 01:26:35;;;;;;;14.70;11.38;;;3.30;98.90;;;;;;6338998;22;20088;-90
2024/01/29 01:29:00;;;;;;;11.98;10.30;;;3.40;98.70;;;;;;6339345;22;20452;-91
2024/01/29 01:31:26;;;;;;;13.18;10.75;;;3.50;98.60;;;;;;6339344;22;20031;-90
2024/01/29 01:33:52;;;;;;;13.75;10.68;;;3.60;98.40;;;;;;6339382;22;20062;-90
2024/01/29 01:36:17;;;;;;;14.45;12.07;;;3.60;97.90;;;;;;6339265;22;20002;-90
2024/01/29 01:38:43;;;;;;;11.98;9.52;;;3.70;98.00;;;;;;6339213;22;20003;-90
2024/01/29 01:41:09;;;;;;;11.02;9.52;;;3.70;97.70;;;;;;6338907;22;20048;-90
2024/01/29 01:43:35;;;;;;;14.40;11.18;;;3.70;97.70;;;;;;6311183;22;20003;-91
2024/01/29 01:46:13;;;;;;;17.52;11.77;;;3.70;97.80;;;;;;6338831;22;19999;-90
2024/01/29 01:48:38;;;;;;;17.40;11.70;;;3.70;97.60;;;;;;6339246;22;20014;-91
2024/01/29 01:51:05;;;;;;;18.08;12.50;;;3.70;97.50;;;;;;6311576;22;20368;-92
2024/01/29 01:53:34;;;;;;;37.47;14.48;;;3.70;97.40;;;;;;6311639;22;20377;-90
2024/01/29 01:56:00;;;;;;;10.32;8.95;;;3.50;97.30;;;;;;6339229;22;20018;-91
2024/01/29 01:58:27;;;;;;;15.27;11.82;;;3.40;97.70;;;;;;6339340;22;20412;-90
2024/01/29 02:00:55;;;;;;;15.70;9.63;;;3.30;97.80;;;;;;6339259;22;20051;-90
2024/01/29 02:03:21;;;;;;;44.15;14.98;;;3.30;97.90;;;;;;6339123;22;20002;-90
2024/01/29 02:05:47;;;;;;;14.23;10.23;;;3.30;98.00;;;;;;6338989;22;20047;-90
2024/01/29 02:08:15;;;;;;;21.60;11.90;;;3.20;98.40;;;;;;6311394;22;20086;-91
2024/01/29 02:10:41;;;;;;;13.68;10.48;;;3.10;98.60;;;;;;6338723;22;20436;-90
2024/01/29 02:13:13;;;;;;;20.95;10.18;;;3.20;98.60;;;;;;6339019;22;20006;-91
2024/01/29 02:15:39;;;;;;;14.10;11.48;;;3.20;98.70;;;;;;6339128;22;20006;-90
2024/01/29 02:18:05;;;;;;;87.80;21.85;;;3.30;98.70;;;;;;6338919;22;20144;-90
2024/01/29 02:20:31;;;;;;;13.57;10.77;;;3.20;98.30;;;;;;6339121;22;19998;-90
2024/01/29 02:22:57;;;;;;;10.60;9.18;;;3.20;98.70;;;;;;6339131;22;19999;-90
2024/01/29 02:25:23;;;;;;;51.67;17.40;;;3.20;98.50;;;;;;6338933;22;20427;-90
2024/01/29 02:27:49;;;;;;;12.63;9.82;;;3.20;98.50;;;;;;6338680;22;20013;-89
2024/01/29 02:30:14;;;;;;;12.95;10.68;;;3.20;98.50;;;;;;6338908;22;20037;-90
2024/01/29 02:32:40;;;;;;;11.38;9.27;;;3.30;98.70;;;;;;6338855;22;20003;-90
2024/01/29 02:35:06;;;;;;;22.23;13.07;;;3.40;98.60;;;;;;6339396;22;20003;-90
2024/01/29 02:37:33;;;;;;;24.70;13.55;;;3.40;98.20;;;;;;6338942;22;20368;-90
2024/01/29 02:39:59;;;;;;;11.68;10.13;;;3.40;98.20;;;;;;6340557;22;20377;-90
2024/01/29 02:42:25;;;;;;;11.90;10.23;;;3.40;98.30;;;;;;6340986;22;20048;-89
2024/01/29 02:44:50;;;;;;;11.57;9.18;;;3.40;98.30;;;;;;6340824;22;20071;-90
2024/01/29 02:47:16;;;;;;;29.02;15.75;;;3.40;98.30;;;;;;6340856;22;20472;-89
2024/01/29 02:49:43;;;;;;;18.42;11.80;;;3.30;98.20;;;;;;6340974;22;20314;-90
2024/01/29 02:52:09;;;;;;;10.70;9.02;;;3.10;98.50;;;;;;6341206;22;20057;-90
2024/01/29 02:54:35;;;;;;;15.40;9.70;;;3.10;98.80;;;;;;6313270;22;20007;-90
2024/01/29 02:57:01;;;;;;;12.32;9.63;;;3.10;98.80;;;;;;6340437;22;20074;-90
2024/01/29 02:59:27;;;;;;;14.55;10.50;;;3.20;98.60;;;;;;6340702;22;20376;-90
2024/01/29 03:01:54;;;;;;;12.65;9.35;;;3.20;98.50;;;;;;6312704;22;20456;-90
2024/01/29 03:04:20;;;;;;;26.65;14.18;;;3.20;98.40;;;;;;6340499;22;19998;-90
2024/01/29 03:06:45;;;;;;;12.65;8.40;;;3.20;98.20;;;;;;6340647;22;20005;-90
2024/01/29 03:09:11;;;;;;;10.82;9.15;;;3.10;98.50;;;;;;6313197;22;20126;-90
2024/01/29 03:11:37;;;;;;;34.72;13.70;;;3.10;98.50;;;;;;6341085;22;20048;-90
2024/01/29 03:14:02;;;;;;;12.30;9.02;;;3.20;98.40;;;;;;6313004;22;20009;-90
2024/01/29 03:16:28;;;;;;;21.63;15.10;;;3.00;98.50;;;;;;6312523;22;20486;-89
2024/01/29 03:18:53;;;;;;;12.15;9.60;;;2.80;98.80;;;;;;6340361;22;20013;-90
2024/01/29 03:21:19;;;;;;;10.60;9.18;;;2.50;99.30;;;;;;6340543;22;20379;-91
2024/01/29 03:23:45;;;;;;;10.40;8.75;;;2.70;99.40;;;;;;6312871;22;20329;-90
2024/01/29 03:26:10;;;;;;;11.73;9.48;;;2.80;99.10;;;;;;6340610;22;19998;-90
2024/01/29 03:28:36;;;;;;;10.93;9.10;;;2.90;98.90;;;;;;6340341;22;20014;-90
2024/01/29 03:31:02;;;;;;;12.32;9.15;;;3.00;98.80;;;;;;6340462;22;20009;-91
2024/01/29 03:33:27;;;;;;;13.32;10.13;;;3.10;98.50;;;;;;6313046;22;20013;-90
2024/01/29 03:35:53;;;;;;;11.60;9.02;;;3.20;98.50;;;;;;6312999;22;20378;-89
2024/01/29 03:38:19;;;;;;;11.77;9.93;;;3.30;98.40;;;;;;6312305;22;20127;-89
2024/01/29 03:40:46;;;;;;;17.30;11.55;;;3.30;98.50;;;;;;6312878;22;20006;-90
2024/01/29 03:43:12;;;;;;;11.43;9.52;;;3.40;98.10;;;;;;6313042;22;20144;-90
2024/01/29 03:45:38;;;;;;;10.27;8.43;;;3.30;97.90;;;;;;6312498;22;20420;-90
2024/01/29 03:48:04;;;;;;;11.00;8.63;;;3.20;97.80;;;;;;6339434;22;20071;-90
2024/01/29 03:50:29;;;;;;;10.40;8.77;;;3.10;97.80;;;;;;6340104;22;20424;-91
2024/01/29 03:52:55;;;;;;;77.18;19.83;;;3.10;98.10;;;;;;6340223;22;20009;-90
2024/01/29 03:55:21;;;;;;;10.32;8.93;;;3.10;97.90;;;;;;6340319;22;20417;-91
2024/01/29 03:57:47;;;;;;;38.60;17.85;;;3.10;98.00;;;;;;6339854;22;20003;-90
2024/01/29 04:00:16;;;;;;;18.92;11.13;;;3.00;97.80;;;;;;6340135;22;20424;-89
2024/01/29 04:02:42;;;;;;;11.00;9.18;;;3.10;98.00;;;;;;6340199;22;19995;-89
2024/01/29 04:05:09;;;;;;;14.95;9.40;;;3.00;98.10;;;;;;6339897;22;20413;-90
2024/01/29 04:07:35;;;;;;;13.05;9.32;;;3.00;98.20;;;;;;6340154;22;20003;-90
2024/01/29 04:10:01;;;;;;;15.65;10.65;;;3.00;98.20;;;;;;6339932;22;20419;-90
2024/01/29 04:12:26;;;;;;;10.10;8.73;;;3.00;98.10;;;;;;6339860;22;20037;-88
2024/01/29 04:14:52;;;;;;;25.45;13.85;;;3.10;98.10;;;;;;6339384;22;20007;-89
2024/01/29 04:17:18;;;;;;;12.23;9.27;;;3.00;98.30;;;;;;6339554;22;20003;-89
2024/01/29 04:19:43;;;;;;;12.88;8.85;;;2.90;98.30;;;;;;6339844;22;19998;-89
2024/01/29 04:22:09;;;;;;;10.45;8.18;;;2.90;98.30;;;;;;6312442;22;20003;-89
2024/01/29 04:24:35;;;;;;;18.83;11.48;;;3.00;98.30;;;;;;6339767;22;19999;-89
2024/01/29 04:27:01;;;;;;;11.07;8.23;;;3.00;98.20;;;;;;6340355;22;19999;-90
2024/01/29 04:29:26;;;;;;;9.75;8.13;;;3.00;98.10;;;;;;6339577;22;20488;-89
2024/01/29 04:31:52;;;;;;;10.60;8.38;;;3.00;98.00;;;;;;6312310;22;20013;-90
2024/01/29 04:34:18;;;;;;;11.30;8.98;;;3.00;97.90;;;;;;6342030;22;20025;-88
2024/01/29 04:36:45;;;;;;;9.35;7.75;;;2.80;98.20;;;;;;6311950;22;20010;-88
2024/01/29 04:39:16;;;;;;;11.07;7.55;;;2.80;98.40;;;;;;6339898;22;20421;-89
2024/01/29 04:41:42;;;;;;;10.98;8.70;;;2.60;98.40;;;;;;6312385;22;20003;-89
2024/01/29 04:44:07;;;;;;;12.48;8.60;;;2.70;98.40;;;;;;6312392;22;20045;-88
2024/01/29 04:46:33;;;;;;;8.68;7.65;;;2.70;98.30;;;;;;6339883;22;20001;-88
2024/01/29 04:48:59;;;;;;;9.38;8.05;;;2.80;98.40;;;;;;6312563;22;20006;-88
2024/01/29 04:51:26;;;;;;;11.02;9.00;;;2.90;98.40;;;;;;6339293;22;20003;-89
2024/01/29 04:53:51;;;;;;;8.50;6.82;;;2.90;98.40;;;;;;6312259;22;20366;-89
2024/01/29 04:56:17;;;;;;;18.13;12.07;;;2.90;98.10;;;;;;6339863;22;20033;-88
2024/01/29 04:58:43;;;;;;;30.33;15.05;;;2.70;98.20;;;;;;6311802;22;20045;-91
2024/01/29 05:01:09;;;;;;;18.67;11.52;;;2.70;98.30;;;;;;6339525;22;20002;-91
2024/01/29 05:03:36;;;;;;;13.05;7.85;;;2.60;98.50;;;;;;6312406;22;20002;-90
2024/01/29 05:06:01;;;;;;;9.73;7.95;;;2.60;98.40;;;;;;6339937;22;20070;-91
2024/01/29 05:08:27;;;;;;;10.20;7.18;;;2.60;98.40;;;;;;6339895;22;20381;-90
2024/01/29 05:10:53;;;;;;;27.08;18.63;;;2.60;98.50;;;;;;6312196;22;20015;-92
2024/01/29 05:13:19;;;;;;;24.75;16.13;;;2.20;98.70;;;;;;6315411;22;20394;-91
2024/01/29 05:15:45;;;;;;;27.17;13.10;;;1.90;99.50;;;;;;6340101;22;19999;-91
2024/01/29 05:18:11;;;;;;;18.88;11.93;;;1.90;99.90;;;;;;6312221;22;20007;-92
2024/01/29 05:20:37;;;;;;;20.98;13.98;;;2.00;99.60;;;;;;6312122;22;20002;-91
2024/01/29 05:23:03;;;;;;;9.98;8.10;;;2.10;99.40;;;;;;6339829;22;20006;-91
2024/01/29 05:25:28;;;;;;;36.63;16.40;;;2.20;99.30;;;;;;6339495;22;20371;-91
2024/01/29 05:27:54;;;;;;;15.52;10.80;;;2.10;99.00;;;;;;6311015;22;20019;-92
2024/01/29 05:30:20;;;;;;;13.05;9.05;;;1.90;99.50;;;;;;6339525;22;20051;-91
2024/01/29 05:32:49;;;;;;;11.13;8.05;;;1.70;99.90;;;;;;6312039;22;20077;-92
2024/01/29 05:35:15;;;;;;;11.77;8.40;;;1.90;99.90;;;;;;6312195;22;20325;-88
2024/01/29 05:37:43;;;;;;;10.35;7.35;;;2.00;99.60;;;;;;6339529;22;19999;-89
2024/01/29 05:40:11;;;;;;;27.73;12.10;;;2.10;99.40;;;;;;6340003;22;20010;-89
2024/01/29 05:42:37;;;;;;;8.38;7.18;;;2.20;99.30;;;;;;6312029;22;20023;-89
2024/01/29 05:45:15;;;;;;;8.48;7.10;;;2.30;99.30;;;;;;6339922;22;20128;-88
2024/01/29 05:47:41;;;;;;;19.35;11.55;;;2.30;99.20;;;;;;6313632;22;20032;-88
2024/01/29 05:50:08;;;;;;;39.67;17.13;;;2.30;99.10;;;;;;6339451;22;20081;-89
2024/01/29 05:52:34;;;;;;;11.25;8.93;;;2.30;98.90;;;;;;6338959;22;20074;-88
2024/01/29 05:55:00;;;;;;;9.48;8.18;;;2.20;99.10;;;;;;6338477;22;20003;-89
2024/01/29 05:57:26;;;;;;;9.73;8.07;;;2.30;99.00;;;;;;6338861;22;20002;-88
2024/01/29 05:59:53;;;;;;;10.10;8.20;;;2.40;99.00;;;;;;6339265;22;20002;-90
2024/01/29 06:02:18;;;;;;;10.57;7.65;;;2.40;98.90;;;;;;6341414;22;20047;-90
2024/01/29 06:04:44;;;;;;;11.90;8.15;;;2.30;99.10;;;;;;6313897;22;20086;-89
2024/01/29 06:07:10;;;;;;;9.25;8.05;;;2.40;99.10;;;;;;6341164;22;20003;-88
2024/01/29 06:09:35;;;;;;;10.75;8.55;;;2.50;99.10;;;;;;6340832;22;20034;-88
2024/01/29 06:12:01;;;;;;;15.30;10.65;;;2.60;98.90;;;;;;6342587;22;20005;-88
2024/01/29 06:14:28;;;;;;;11.43;9.23;;;2.60;98.50;;;;;;6342030;22;20398;-89
2024/01/29 06:16:57;;;;;;;11.70;8.82;;;2.70;98.60;;;;;;6313836;22;20007;-88
2024/01/29 06:19:23;;;;;;;8.95;7.35;;;2.70;98.40;;;;;;6340574;22;20003;-88
2024/01/29 06:21:52;;;;;;;8.27;7.00;;;2.70;98.10;;;;;;6340913;22;20481;-88
2024/01/29 06:24:18;;;;;;;7.75;6.70;;;2.70;98.10;;;;;;6343425;22;20207;-88
2024/01/29 06:26:44;;;;;;;23.90;15.05;;;2.70;98.30;;;;;;6340841;22;20052;-89
2024/01/29 06:29:09;;;;;;;8.00;6.20;;;2.50;98.00;;;;;;6341912;22;20081;-89
2024/01/29 06:31:46;;;;;;;19.42;14.18;;;2.40;98.50;;;;;;6343881;22;20324;-88
2024/01/29 06:34:12;;;;;;;11.82;8.65;;;2.40;98.20;;;;;;6348240;22;20075;-89
2024/01/29 06:36:37;;;;;;;8.57;7.28;;;2.20;98.80;;;;;;6345758;22;19995;-89
2024/01/29 06:39:03;;;;;;;10.70;8.57;;;2.30;98.80;;;;;;6346993;22;20029;-88
2024/01/29 06:41:30;;;;;;;10.48;8.25;;;2.40;98.80;;;;;;6317380;22;20003;-90
2024/01/29 06:43:56;;;;;;;9.90;7.63;;;2.50;98.60;;;;;;6320404;22;20087;-90
2024/01/29 06:46:22;;;;;;;13.30;9.63;;;2.50;98.30;;;;;;6317943;22;20003;-89
2024/01/29 06:48:48;;;;;;;10.32;8.70;;;2.50;98.20;;;;;;6348675;22;20364;-91
2024/01/29 06:51:15;;;;;;;9.13;7.70;;;2.60;98.30;;;;;;6346762;22;20006;-91
2024/01/29 06:53:41;;;;;;;9.52;8.13;;;2.60;98.50;;;;;;6342325;22;19983;-90
2024/01/29 06:56:07;;;;;;;8.95;7.28;;;2.70;98.20;;;;;;6342548;22;20074;-91
2024/01/29 06:58:36;;;;;;;12.15;9.60;;;2.70;98.20;;;;;;6315155;22;20010;-89
2024/01/29 07:01:02;;;;;;;14.18;11.18;;;2.70;97.90;;;;;;6340956;22;20053;-90
2024/01/29 07:03:28;;;;;;;13.88;11.50;;;2.50;97.90;;;;;;6342260;22;20006;-88
2024/01/29 07:05:54;;;;;;;15.30;10.38;;;2.50;98.20;;;;;;6314233;22;19999;-91
2024/01/29 07:08:20;;;;;;;10.23;8.10;;;2.60;98.20;;;;;;6341962;22;20045;-89
2024/01/29 07:10:46;;;;;;;11.40;8.77;;;2.60;98.10;;;;;;6313037;22;20007;-87
2024/01/29 07:13:12;;;;;;;9.55;7.72;;;2.60;98.10;;;;;;6341390;22;19999;-90
2024/01/29 07:15:38;;;;;;;10.65;8.80;;;2.60;97.90;;;;;;6313736;22;20416;-88
2024/01/29 07:18:04;;;;;;;14.77;11.43;;;2.60;98.00;;;;;;6340652;22;20439;-89
2024/01/29 07:20:37;;;;;;;13.77;9.68;;;2.60;98.20;;;;;;6340072;22;20045;-89
2024/01/29 07:23:07;;;;;;;14.23;11.65;;;2.60;98.00;;;;;;6340920;22;20002;-89
2024/01/29 07:25:38;;;;;;;12.23;10.07;;;2.70;97.90;;;;;;6314488;22;19999;-89
2024/01/29 07:28:04;;;;;;;12.95;10.07;;;2.60;97.60;;;;;;6342422;22;20444;-87
2024/01/29 07:30:30;;;;;;;7.80;6.75;;;2.50;97.90;;;;;;6342344;22;19999;-88
2024/01/29 07:33:00;;;;;;;9.93;8.27;;;2.50;98.20;;;;;;6341581;22;20009;-90
2024/01/29 07:35:26;;;;;;;11.50;8.80;;;2.40;98.40;;;;;;6342283;22;20003;-88
2024/01/29 07:37:53;;;;;;;16.20;12.15;;;2.50;98.30;;;;;;6312377;22;20373;-89
2024/01/29 07:40:19;;;;;;;11.15;8.43;;;2.70;98.00;;;;;;6336485;22;20068;-84
2024/01/29 07:42:49;;;;;;;8.88;7.72;;;2.70;98.00;;;;;;6311056;22;19998;-85
2024/01/29 07:45:15;;;;;;;16.37;12.33;;;2.70;97.60;;;;;;6339116;22;20149;-85
2024/01/29 07:47:41;;;;;;;15.88;13.15;;;2.70;97.50;;;;;;6341866;22;20015;-89
2024/01/29 07:50:07;;;;;;;10.38;8.07;;;2.60;97.60;;;;;;6341451;22;20067;-90
2024/01/29 07:52:32;;;;;;;10.43;8.82;;;2.60;97.70;;;;;;6343419;22;20002;-90
2024/01/29 07:54:59;;;;;;;10.23;8.82;;;2.70;97.80;;;;;;6342618;22;20306;-90
2024/01/29 07:57:25;;;;;;;8.45;7.55;;;2.80;97.70;;;;;;6342537;22;20025;-90
2024/01/29 07:59:51;;;;;;;8.10;7.00;;;2.90;97.50;;;;;;6342131;22;19999;-90
2024/01/29 08:02:17;;;;;;;9.18;7.63;;;3.00;97.30;;;;;;6342846;22;20052;-89
2024/01/29 08:04:42;;;;;;;9.50;7.75;;;3.00;97.30;;;;;;6342322;22;20003;-90
2024/01/29 08:07:08;;;;;;;9.80;8.40;;;2.80;97.50;;;;;;6342401;22;19999;-91
2024/01/29 08:09:34;;;;;;;9.57;8.48;;;2.90;97.60;;;;;;6342223;22;20329;-91
2024/01/29 08:12:00;;;;;;;7.63;6.82;;;3.00;97.70;;;;;;6342890;22;19999;-91
2024/01/29 08:14:25;;;;;;;9.90;8.10;;;3.00;97.30;;;;;;6314846;22;20003;-91
2024/01/29 08:16:51;;;;;;;9.45;8.45;;;3.10;97.40;;;;;;6314300;22;20383;-91
2024/01/29 08:19:17;;;;;;;9.98;8.80;;;3.20;97.30;;;;;;6342256;22;19998;-90
2024/01/29 08:21:43;;;;;;;16.80;11.25;;;3.10;97.40;;;;;;6342013;22;20029;-91
2024/01/29 08:24:08;;;;;;;11.23;8.73;;;2.90;97.70;;;;;;6342106;22;20069;-91
2024/01/29 08:26:34;;;;;;;13.13;11.40;;;2.80;98.00;;;;;;6314546;22;20003;-92
2024/01/29 08:29:00;;;;;;;12.02;9.82;;;2.90;98.00;;;;;;6342023;22;20015;-90
2024/01/29 08:31:26;;;;;;;9.38;7.88;;;2.90;98.00;;;;;;6314955;22;20017;-90
2024/01/29 08:33:52;;;;;;;11.80;9.52;;;3.00;98.10;;;;;;6314216;22;20090;-88
2024/01/29 08:36:22;;;;;;;17.02;11.55;;;3.00;98.10;;;;;;6342608;22;20003;-89
2024/01/29 08:38:48;;;;;;;;;;;3.10;98.10;;;;;;6342530;22;20310;-90
2024/01/29 08:41:14;;;;;;;10.25;8.52;;;3.20;97.90;;;;;;6342442;22;19898;-90
2024/01/29 08:43:40;;;;;;;13.98;10.60;;;3.20;98.10;;;;;;6342613;22;20022;-89
2024/01/29 08:46:06;;;;;;;12.80;10.05;;;3.30;98.00;;;;;;6342084;22;20027;-90
2024/01/29 08:48:32;;;;;;;19.05;12.70;;;3.40;97.80;;;;;;6341524;22;20329;-90
2024/01/29 08:50:59;;;;;;;18.80;16.10;;;3.50;97.90;;;;;;6342110;22;20118;-90
2024/01/29 08:53:25;;;;;;;11.43;9.73;;;3.40;97.80;;;;;;6314009;22;20028;-89
2024/01/29 08:55:51;;;;;;;10.82;9.32;;;3.50;98.00;;;;;;6341970;22;19999;-89
2024/01/29 08:58:16;;;;;;;12.93;10.23;;;3.80;98.10;;;;;;6313898;22;20010;-90
2024/01/29 09:00:42;;;;;;;11.98;10.38;;;4.10;98.00;;;;;;6342441;22;20070;-90
2024/01/29 09:03:09;;;;;;;12.20;10.65;;;4.40;97.70;;;;;;6342511;22;20025;-90
2024/01/29 09:05:36;;;;;;;18.92;16.35;;;4.60;97.40;;;;;;6314441;22;20009;-90
2024/01/29 09:08:02;;;;;;;16.30;14.52;;;4.60;96.20;;;;;;6313620;22;20310;-90
2024/01/29 09:10:27;;;;;;;14.10;11.60;;;4.80;96.20;;;;;;6342278;22;20005;-89
2024/01/29 09:12:53;;;;;;;13.45;10.30;;;4.90;96.30;;;;;;6342871;22;20034;-90
2024/01/29 09:15:19;;;;;;;24.20;18.92;;;5.00;96.00;;;;;;6341705;22;20005;-90
2024/01/29 09:17:44;;;;;;;15.20;12.23;;;5.10;95.60;;;;;;6342869;22;20002;-90
2024/01/29 09:20:12;;;;;;;15.25;12.73;;;5.00;95.50;;;;;;6341312;22;20044;-90
2024/01/29 09:22:37;;;;;;;14.50;11.85;;;5.00;95.50;;;;;;6312430;22;20448;-91
2024/01/29 09:25:04;;;;;;;15.52;12.15;;;5.10;95.50;;;;;;6315033;22;20010;-90
2024/01/29 09:27:31;;;;;;;13.63;11.40;;;5.20;95.50;;;;;;6340834;22;20153;-86
2024/01/29 09:30:09;;;;;;;17.70;13.15;;;5.30;95.40;;;;;;6339925;22;20003;-86
2024/01/29 09:32:35;;;;;;;14.43;11.57;;;5.50;95.70;;;;;;6341368;22;19999;-86
2024/01/29 09:35:00;;;;;;;17.65;13.20;;;5.60;95.30;;;;;;6312528;22;20003;-86
2024/01/29 09:37:26;;;;;;;16.65;13.35;;;5.90;95.60;;;;;;6340775;22;20017;-86
2024/01/29 09:39:53;;;;;;;18.98;14.07;;;6.20;95.90;;;;;;6340263;22;20003;-85
2024/01/29 09:42:20;;;;;;;21.02;16.08;;;6.50;95.60;;;;;;6339755;22;20369;-87
2024/01/29 09:44:50;;;;;;;19.90;15.85;;;6.80;94.90;;;;;;6340830;22;20439;-87
2024/01/29 09:47:19;;;;;;;20.13;15.95;;;6.80;94.20;;;;;;6340589;22;20431;-88
2024/01/29 09:49:46;;;;;;;25.45;20.90;;;7.00;94.30;;;;;;6314455;22;20013;-87
2024/01/29 09:52:13;;;;;;;35.00;26.48;;;7.20;93.30;;;;;;6341921;22;20002;-87
2024/01/29 09:54:40;;;;;;;35.85;24.67;;;7.00;92.10;;;;;;6341581;22;20009;-87
2024/01/29 09:57:11;;;;;;;23.88;17.13;;;6.80;92.60;;;;;;6340628;22;20078;-87
2024/01/29 09:59:37;;;;;;;24.58;18.65;;;6.60;93.50;;;;;;6340651;22;19999;-88
2024/01/29 10:02:03;;;;;;;31.45;22.55;;;6.70;93.30;;;;;;6339045;22;20006;-88
2024/01/29 10:04:29;;;;;;;27.15;19.33;;;6.70;92.80;;;;;;6340386;22;20003;-88
2024/01/29 10:06:55;;;;;;;26.95;19.50;;;6.90;93.60;;;;;;6312924;22;20003;-87
2024/01/29 10:09:20;;;;;;;24.27;19.17;;;7.20;93.30;;;;;;6340734;22;19995;-88
2024/01/29 10:11:46;;;;;;;25.05;18.70;;;7.40;92.80;;;;;;6341075;22;20026;-87
2024/01/29 10:14:12;;;;;;;27.50;20.88;;;7.70;93.10;;;;;;6313282;22;20441;-88
2024/01/29 10:16:38;;;;;;;24.52;19.15;;;8.00;93.10;;;;;;6341020;22;20002;-88
2024/01/29 10:19:04;;;;;;;24.85;19.58;;;8.20;91.80;;;;;;6339870;22;20014;-87
2024/01/29 10:21:48;;;;;;;31.55;23.30;;;8.40;91.60;;;;;;6341158;22;20031;-88
2024/01/29 10:24:15;;;;;;;31.65;23.48;;;8.60;91.70;;;;;;6340571;22;20009;-87
2024/01/29 10:26:42;;;;;;;32.53;25.25;;;8.70;90.90;;;;;;6341226;22;20002;-88
2024/01/29 10:29:11;;;;;;;25.05;20.25;;;8.70;90.20;;;;;;6340959;22;20018;-88
2024/01/29 10:31:37;;;;;;;29.77;23.20;;;8.70;90.70;;;;;;6341674;22;20065;-88
2024/01/29 10:34:04;;;;;;;23.58;18.90;;;8.50;90.70;;;;;;6340683;22;20469;-88
2024/01/29 10:36:30;;;;;;;22.40;17.88;;;8.50;91.10;;;;;;6341391;22;20066;-88
2024/01/29 10:38:58;;;;;;;22.58;17.83;;;8.50;91.30;;;;;;6341172;22;20033;-89
2024/01/29 10:41:25;;;;;;;22.63;18.65;;;8.80;91.10;;;;;;6340780;22;20070;-88
2024/01/29 10:43:52;;;;;;;21.13;17.33;;;9.00;90.20;;;;;;6339593;22;20026;-89
2024/01/29 10:46:20;;;;;;;26.35;21.83;;;9.00;90.20;;;;;;6340071;22;19995;-88
2024/01/29 10:48:47;;;;;;;20.73;17.38;;;8.70;90.00;;;;;;6341642;22;20003;-89
2024/01/29 10:51:14;;;;;;;26.35;20.95;;;8.80;91.00;;;;;;6314561;22;20010;-89
2024/01/29 10:53:44;;;;;;;26.30;20.20;;;9.10;90.80;;;;;;6341024;22;19999;-88
2024/01/29 10:56:11;;;;;;;19.35;16.98;;;9.30;90.40;;;;;;6340444;22;20456;-88
2024/01/29 10:58:38;;;;;;;23.83;18.75;;;9.40;90.30;;;;;;6340873;22;20002;-89
2024/01/29 11:01:09;;;;;;;16.83;14.80;;;9.60;90.50;;;;;;6342080;22;20002;-89
2024/01/29 11:03:36;;;;;;;21.05;17.13;;;9.70;90.60;;;;;;6314459;22;20424;-88
2024/01/29 11:06:26;;;;;;;23.35;20.77;;;9.90;89.60;;;;;;6342054;22;20062;-89
2024/01/29 11:08:58;;;;;;;17.65;14.43;;;9.90;87.70;;;;;;6340436;22;20002;-87
2024/01/29 11:11:27;;;;;;;18.63;16.48;;;9.90;88.30;;;;;;6341106;22;20071;-87
2024/01/29 11:13:53;;;;;;;17.63;15.02;;;10.20;89.00;;;;;;6340011;22;20003;-86
2024/01/29 11:16:22;;;;;;;17.83;15.73;;;10.30;88.10;;;;;;6339409;22;20003;-87
2024/01/29 11:18:48;;;;;;;21.50;18.60;;;10.60;89.00;;;;;;6340434;22;19999;-88
2024/01/29 11:21:14;;;;;;;20.35;17.30;;;10.90;86.30;;;;;;6310865;22;20022;-88
2024/01/29 11:23:47;;;;;;;26.60;22.92;;;11.10;88.20;;;;;;6337686;22;20448;-87
2024/01/29 11:26:15;;;;;;;24.40;19.75;;;11.30;85.90;;;;;;6340396;22;20125;-87
2024/01/29 11:28:41;;;;;;;29.20;21.20;;;11.60;86.30;;;;;;6339679;22;20432;-88
2024/01/29 11:31:12;;;;;;;28.92;21.42;;;11.50;85.70;;;;;;6341607;22;19999;-89
2024/01/29 11:33:37;;;;;;;;;;;11.70;86.00;;;;;;6341056;22;20425;-88
2024/01/29 11:36:11;;;;;;;28.50;22.13;;;12.00;85.10;;;;;;6341445;22;19943;-89
2024/01/29 11:38:36;;;;;;;29.30;23.50;;;12.00;84.50;;;;;;6340414;22;20006;-88
2024/01/29 11:41:02;;;;;;;37.75;29.60;;;11.80;81.20;;;;;;6341653;22;20417;-86
2024/01/29 11:43:28;;;;;;;35.63;28.95;;;11.60;81.80;;;;;;6341795;22;20370;-87
2024/01/29 11:45:54;;;;;;;32.72;26.20;;;11.50;82.40;;;;;;6342437;22;20002;-90
2024/01/29 11:48:23;;;;;;;23.75;18.42;;;11.40;82.60;;;;;;6314744;22;20057;-90
2024/01/29 11:50:51;;;;;;;28.85;24.52;;;11.50;84.60;;;;;;6341902;22;20060;-90
2024/01/29 11:53:20;;;;;;;24.17;20.25;;;11.80;83.00;;;;;;6342246;22;20337;-90
2024/01/29 11:55:48;;;;;;;24.60;20.92;;;12.30;83.80;;;;;;6316356;22;20010;-90
2024/01/29 11:58:25;;;;;;;25.38;21.25;;;13.60;80.70;;;;;;6318764;22;20068;-92
2024/01/29 12:00:52;;;;;;;24.38;19.30;;;15.10;82.00;;;;;;6340602;22;20424;-89
2024/01/29 12:03:34;;;;;;;25.38;21.38;;;16.80;81.60;;;;;;6341669;22;20467;-90
2024/01/29 12:06:00;;;;;;;19.80;16.83;;;17.90;68.30;;;;;;6342058;22;20003;-91
2024/01/29 12:08:26;;;;;;;16.75;14.25;;;18.90;67.40;;;;;;6340502;22;19999;-89
2024/01/29 12:11:01;;;;;;;16.77;13.55;;;19.30;65.00;;;;;;6341041;22;20006;-88
2024/01/29 12:13:28;;;;;;;16.58;13.05;;;19.90;59.60;;;;;;6341435;22;20124;-87
2024/01/29 12:15:56;;;;;;;15.15;13.55;;;20.60;61.60;;;;;;6313590;22;20103;-87
2024/01/29 12:18:24;;;;;;;17.60;14.75;;;21.50;60.40;;;;;;6340651;22;20403;-88
2024/01/29 12:20:51;;;;;;;15.95;14.27;;;21.90;55.50;;;;;;6340258;22;20003;-88
2024/01/29 12:23:21;;;;;;;17.02;14.82;;;22.50;56.80;;;;;;6312215;22;20030;-88
2024/01/29 12:25:56;;;;;;;16.42;14.73;;;23.10;54.70;;;;;;6339919;22;19995;-88
2024/01/29 12:28:25;;;;;;;17.63;15.57;;;23.70;54.50;;;;;;6340255;22;20410;-88
2024/01/29 12:30:58;;;;;;;17.77;15.97;;;24.20;52.40;;;;;;6341389;22;20545;-88
2024/01/29 12:33:30;;;;;;;18.55;16.40;;;24.50;51.70;;;;;;6340638;22;20492;-89
2024/01/29 12:36:15;;;;;;;20.48;18.38;;;24.30;50.20;;;;;;6341569;22;20073;-89
2024/01/29 12:39:01;;;;;;;24.65;19.27;;;24.40;50.40;;;;;;6341208;22;20002;-89